sensor_id;sensor_type;location;lat;lon;timestamp;P1;durP1;ratioP1;P2;durP2;ratioP2
56401;SDS011;42299;35.160;26.100;2023-07-20T00:03:15;11.15;;;5.57;;
56401;SDS011;42299;35.160;26.100;2023-07-20T00:13:41;10.55;;;5.05;;
56401;SDS011;42299;35.160;26.100;2023-07-20T00:24:04;13.82;;;5.53;;
56401;SDS011;42299;35.160;26.100;2023-07-20T00:34:29;13.23;;;5.93;;
56401;SDS011;42299;35.160;26.100;2023-07-20T00:44:51;9.02;;;5.78;;
56401;SDS011;42299;35.160;26.100;2023-07-20T00:55:15;9.18;;;5.15;;
56401;SDS011;42299;35.160;26.100;2023-07-20T01:05:39;11.05;;;4.97;;
56401;SDS011;42299;35.160;26.100;2023-07-20T01:16:07;9.07;;;5.40;;
56401;SDS011;42299;35.160;26.100;2023-07-20T01:26:38;8.70;;;5.10;;
56401;SDS011;42299;35.160;26.100;2023-07-20T01:37:21;14.27;;;5.90;;
56401;SDS011;42299;35.160;26.100;2023-07-20T01:47:48;11.43;;;5.47;;
56401;SDS011;42299;35.160;26.100;2023-07-20T01:58:13;10.23;;;5.43;;
56401;SDS011;42299;35.160;26.100;2023-07-20T02:08:35;10.38;;;5.63;;
56401;SDS011;42299;35.160;26.100;2023-07-20T02:19:00;10.85;;;5.28;;
56401;SDS011;42299;35.160;26.100;2023-07-20T02:29:23;10.88;;;5.63;;
56401;SDS011;42299;35.160;26.100;2023-07-20T02:39:48;9.90;;;4.93;;
56401;SDS011;42299;35.160;26.100;2023-07-20T02:50:11;10.57;;;5.85;;
56401;SDS011;42299;35.160;26.100;2023-07-20T03:00:36;13.68;;;5.43;;
56401;SDS011;42299;35.160;26.100;2023-07-20T03:10:59;9.65;;;5.50;;
56401;SDS011;42299;35.160;26.100;2023-07-20T03:21:25;13.65;;;5.97;;
56401;SDS011;42299;35.160;26.100;2023-07-20T03:31:47;9.43;;;5.15;;
56401;SDS011;42299;35.160;26.100;2023-07-20T03:42:14;15.18;;;5.70;;
56401;SDS011;42299;35.160;26.100;2023-07-20T03:52:36;18.63;;;5.35;;
56401;SDS011;42299;35.160;26.100;2023-07-20T04:03:00;11.77;;;5.13;;
56401;SDS011;42299;35.160;26.100;2023-07-20T04:13:23;12.35;;;5.05;;
56401;SDS011;42299;35.160;26.100;2023-07-20T04:23:47;13.57;;;5.80;;
56401;SDS011;42299;35.160;26.100;2023-07-20T04:34:09;10.57;;;5.30;;
56401;SDS011;42299;35.160;26.100;2023-07-20T04:44:35;17.50;;;5.30;;
56401;SDS011;42299;35.160;26.100;2023-07-20T04:54:57;9.23;;;4.88;;
56401;SDS011;42299;35.160;26.100;2023-07-20T05:05:03;13.93;;;5.32;;
56401;SDS011;42299;35.160;26.100;2023-07-20T05:15:26;8.68;;;4.20;;
56401;SDS011;42299;35.160;26.100;2023-07-20T05:25:56;9.50;;;3.90;;
56401;SDS011;42299;35.160;26.100;2023-07-20T05:36:19;7.93;;;4.10;;
56401;SDS011;42299;35.160;26.100;2023-07-20T05:46:43;9.10;;;4.13;;
56401;SDS011;42299;35.160;26.100;2023-07-20T05:57:05;9.02;;;4.00;;
56401;SDS011;42299;35.160;26.100;2023-07-20T06:07:29;12.75;;;4.30;;
56401;SDS011;42299;35.160;26.100;2023-07-20T06:17:53;10.05;;;4.32;;
56401;SDS011;42299;35.160;26.100;2023-07-20T06:28:19;8.25;;;4.10;;
56401;SDS011;42299;35.160;26.100;2023-07-20T06:38:42;8.18;;;4.18;;
56401;SDS011;42299;35.160;26.100;2023-07-20T06:49:07;8.35;;;4.72;;
56401;SDS011;42299;35.160;26.100;2023-07-20T06:59:30;8.75;;;3.88;;
56401;SDS011;42299;35.160;26.100;2023-07-20T07:09:54;9.55;;;3.95;;
56401;SDS011;42299;35.160;26.100;2023-07-20T07:19:57;10.82;;;4.43;;
56401;SDS011;42299;35.160;26.100;2023-07-20T07:30:22;9.25;;;4.30;;
56401;SDS011;42299;35.160;26.100;2023-07-20T07:40:45;7.93;;;4.05;;
56401;SDS011;42299;35.160;26.100;2023-07-20T07:51:10;7.88;;;3.90;;
56401;SDS011;42299;35.160;26.100;2023-07-20T08:01:34;10.43;;;4.25;;
56401;SDS011;42299;35.160;26.100;2023-07-20T08:11:58;10.82;;;4.10;;
56401;SDS011;42299;35.160;26.100;2023-07-20T08:22:22;9.45;;;4.60;;
56401;SDS011;42299;35.160;26.100;2023-07-20T08:32:47;8.77;;;4.05;;
56401;SDS011;42299;35.160;26.100;2023-07-20T08:43:10;9.10;;;4.30;;
56401;SDS011;42299;35.160;26.100;2023-07-20T08:53:36;13.40;;;4.93;;
56401;SDS011;42299;35.160;26.100;2023-07-20T09:03:59;9.95;;;4.35;;
56401;SDS011;42299;35.160;26.100;2023-07-20T09:14:24;10.75;;;4.20;;
56401;SDS011;42299;35.160;26.100;2023-07-20T09:35:15;12.60;;;3.83;;
56401;SDS011;42299;35.160;26.100;2023-07-20T09:45:39;10.70;;;3.88;;
56401;SDS011;42299;35.160;26.100;2023-07-20T09:56:07;5.05;;;3.58;;
56401;SDS011;42299;35.160;26.100;2023-07-20T10:06:32;7.10;;;3.85;;
56401;SDS011;42299;35.160;26.100;2023-07-20T10:16:58;7.97;;;3.88;;
56401;SDS011;42299;35.160;26.100;2023-07-20T10:27:23;9.77;;;3.50;;
56401;SDS011;42299;35.160;26.100;2023-07-20T10:37:49;10.13;;;3.70;;
56401;SDS011;42299;35.160;26.100;2023-07-20T10:48:16;7.95;;;3.67;;
56401;SDS011;42299;35.160;26.100;2023-07-20T10:58:35;8.82;;;3.78;;
56401;SDS011;42299;35.160;26.100;2023-07-20T11:09:03;9.32;;;3.40;;
56401;SDS011;42299;35.160;26.100;2023-07-20T11:19:29;8.27;;;3.67;;
56401;SDS011;42299;35.160;26.100;2023-07-20T11:29:52;7.85;;;3.47;;
56401;SDS011;42299;35.160;26.100;2023-07-20T11:40:17;7.90;;;3.35;;
56401;SDS011;42299;35.160;26.100;2023-07-20T11:50:40;7.93;;;3.80;;
56401;SDS011;42299;35.160;26.100;2023-07-20T12:01:04;9.88;;;4.15;;
56401;SDS011;42299;35.160;26.100;2023-07-20T12:11:31;8.38;;;4.10;;
56401;SDS011;42299;35.160;26.100;2023-07-20T12:21:59;9.15;;;4.38;;
56401;SDS011;42299;35.160;26.100;2023-07-20T12:32:22;9.52;;;4.35;;
56401;SDS011;42299;35.160;26.100;2023-07-20T12:42:46;8.55;;;4.00;;
56401;SDS011;42299;35.160;26.100;2023-07-20T12:52:48;8.35;;;4.07;;
56401;SDS011;42299;35.160;26.100;2023-07-20T13:02:53;9.10;;;4.03;;
56401;SDS011;42299;35.160;26.100;2023-07-20T13:13:16;7.00;;;3.40;;
56401;SDS011;42299;35.160;26.100;2023-07-20T13:23:41;10.57;;;3.92;;
56401;SDS011;42299;35.160;26.100;2023-07-20T13:34:04;8.45;;;4.10;;
56401;SDS011;42299;35.160;26.100;2023-07-20T13:44:29;7.93;;;3.78;;
56401;SDS011;42299;35.160;26.100;2023-07-20T13:54:52;11.05;;;4.47;;
56401;SDS011;42299;35.160;26.100;2023-07-20T14:05:17;7.65;;;4.13;;
56401;SDS011;42299;35.160;26.100;2023-07-20T14:25:45;7.85;;;4.03;;
56401;SDS011;42299;35.160;26.100;2023-07-20T14:36:07;6.03;;;3.38;;
56401;SDS011;42299;35.160;26.100;2023-07-20T14:46:31;7.55;;;3.90;;
56401;SDS011;42299;35.160;26.100;2023-07-20T15:07:19;10.00;;;4.10;;
56401;SDS011;42299;35.160;26.100;2023-07-20T15:17:44;7.40;;;3.75;;
56401;SDS011;42299;35.160;26.100;2023-07-20T15:28:09;7.05;;;3.38;;
56401;SDS011;42299;35.160;26.100;2023-07-20T15:38:11;5.90;;;3.28;;
56401;SDS011;42299;35.160;26.100;2023-07-20T15:48:35;7.45;;;3.50;;
56401;SDS011;42299;35.160;26.100;2023-07-20T15:58:58;8.57;;;4.35;;
56401;SDS011;42299;35.160;26.100;2023-07-20T16:09:22;11.18;;;4.13;;
56401;SDS011;42299;35.160;26.100;2023-07-20T16:19:45;7.43;;;3.97;;
56401;SDS011;42299;35.160;26.100;2023-07-20T16:30:10;7.53;;;4.00;;
56401;SDS011;42299;35.160;26.100;2023-07-20T16:40:35;7.00;;;3.83;;
56401;SDS011;42299;35.160;26.100;2023-07-20T16:51:00;9.77;;;4.35;;
56401;SDS011;42299;35.160;26.100;2023-07-20T17:01:24;7.20;;;4.20;;
56401;SDS011;42299;35.160;26.100;2023-07-20T17:11:49;7.63;;;4.38;;
56401;SDS011;42299;35.160;26.100;2023-07-20T17:22:12;7.20;;;4.20;;
56401;SDS011;42299;35.160;26.100;2023-07-20T17:32:37;11.43;;;5.03;;
56401;SDS011;42299;35.160;26.100;2023-07-20T17:43:00;10.38;;;4.75;;
56401;SDS011;42299;35.160;26.100;2023-07-20T17:53:24;11.65;;;4.63;;
56401;SDS011;42299;35.160;26.100;2023-07-20T18:03:47;8.75;;;4.60;;
56401;SDS011;42299;35.160;26.100;2023-07-20T18:14:12;10.05;;;4.45;;
56401;SDS011;42299;35.160;26.100;2023-07-20T18:24:35;13.15;;;5.47;;
56401;SDS011;42299;35.160;26.100;2023-07-20T18:34:57;9.38;;;5.00;;
56401;SDS011;42299;35.160;26.100;2023-07-20T18:45:22;10.65;;;4.55;;
56401;SDS011;42299;35.160;26.100;2023-07-20T18:55:48;9.45;;;4.75;;
56401;SDS011;42299;35.160;26.100;2023-07-20T19:06:11;9.88;;;5.22;;
56401;SDS011;42299;35.160;26.100;2023-07-20T19:16:36;14.07;;;5.40;;
56401;SDS011;42299;35.160;26.100;2023-07-20T19:26:59;14.18;;;6.97;;
56401;SDS011;42299;35.160;26.100;2023-07-20T19:37:24;7.88;;;5.40;;
56401;SDS011;42299;35.160;26.100;2023-07-20T19:47:47;8.60;;;4.85;;
56401;SDS011;42299;35.160;26.100;2023-07-20T19:58:12;9.48;;;5.53;;
56401;SDS011;42299;35.160;26.100;2023-07-20T20:08:35;12.00;;;5.50;;
56401;SDS011;42299;35.160;26.100;2023-07-20T20:19:01;8.35;;;4.63;;
56401;SDS011;42299;35.160;26.100;2023-07-20T20:29:24;9.25;;;5.30;;
56401;SDS011;42299;35.160;26.100;2023-07-20T20:39:49;8.57;;;5.13;;
56401;SDS011;42299;35.160;26.100;2023-07-20T20:49:52;9.40;;;4.93;;
56401;SDS011;42299;35.160;26.100;2023-07-20T21:00:18;7.40;;;4.82;;
56401;SDS011;42299;35.160;26.100;2023-07-20T21:10:43;10.52;;;5.20;;
56401;SDS011;42299;35.160;26.100;2023-07-20T21:21:08;8.90;;;4.55;;
56401;SDS011;42299;35.160;26.100;2023-07-20T21:31:31;9.95;;;4.70;;
56401;SDS011;42299;35.160;26.100;2023-07-20T21:41:56;7.45;;;5.25;;
56401;SDS011;42299;35.160;26.100;2023-07-20T21:52:20;6.90;;;4.70;;
56401;SDS011;42299;35.160;26.100;2023-07-20T22:02:44;8.45;;;5.30;;
56401;SDS011;42299;35.160;26.100;2023-07-20T22:13:07;8.68;;;4.95;;
56401;SDS011;42299;35.160;26.100;2023-07-20T22:23:31;9.40;;;5.70;;
56401;SDS011;42299;35.160;26.100;2023-07-20T22:33:54;9.55;;;5.53;;
56401;SDS011;42299;35.160;26.100;2023-07-20T22:43:59;11.68;;;5.97;;
56401;SDS011;42299;35.160;26.100;2023-07-20T22:54:21;11.20;;;5.88;;
56401;SDS011;42299;35.160;26.100;2023-07-20T23:04:46;9.27;;;5.38;;
56401;SDS011;42299;35.160;26.100;2023-07-20T23:15:09;7.32;;;5.20;;
56401;SDS011;42299;35.160;26.100;2023-07-20T23:25:33;10.10;;;4.70;;
56401;SDS011;42299;35.160;26.100;2023-07-20T23:35:55;8.50;;;5.22;;
56401;SDS011;42299;35.160;26.100;2023-07-20T23:46:20;8.05;;;5.18;;
56401;SDS011;42299;35.160;26.100;2023-07-20T23:56:47;10.27;;;5.20;;
